Terminal Aerodrome Forecast
Issued by NWS

Home | Current Version | Previous Version | Text Only | Print | Product List | Glossary On
Versions: 1 2 3 4 5 6 7 8 9 10 11 12 13 14 15 16 17 18
000
FTUS45 KABQ 010757 AAA
TAFTCC
TAF AMD
KTCC 010757Z 0108/0206 VRB06KT P6SM VCSH BKN050 BKN130
     FM011700 23010KT P6SM BKN110
     FM012300 23010KT P6SM VCTS SCT060CB BKN100
     FM020200 17010KT P6SM BKN110=

USA.gov is the U.S. government's official web portal to all federal, state and local government web resources and services.